Time;durP1;ratioP1;P1;durP2;ratioP2;P2;SDS_P1;SDS_P2;PMS_P1;PMS_P2;Temp;Humidity;BMP_temperature;BMP_pressure;BME280_temperature;BME280_humidity;BME280_pressure;Samples;Min_cycle;Max_cycle;Signal;HPM_P1;HPM_P2
2023/02/09 00:02:24;;;;;;;18.50;14.82;;;6.10;63.30;;;;;;4917743;29;20071;-77
2023/02/09 00:04:49;;;;;;;16.63;12.43;;;6.10;63.30;;;;;;4919528;29;20020;-77
2023/02/09 00:07:15;;;;;;;15.27;12.75;;;6.10;63.30;;;;;;4918925;29;20044;-78
2023/02/09 00:09:43;;;;;;;16.02;12.82;;;6.00;63.20;;;;;;4922736;29;20031;-77
2023/02/09 00:14:54;;;;;;;15.68;12.23;;;6.00;63.30;;;;;;4915042;29;20035;-77
2023/02/09 00:17:20;;;;;;;18.42;12.95;;;6.00;63.30;;;;;;4924796;29;20366;-77
2023/02/09 00:19:46;;;;;;;16.50;12.85;;;6.00;63.30;;;;;;4914064;29;20115;-77
2023/02/09 00:22:12;;;;;;;16.25;12.35;;;5.90;63.20;;;;;;4922919;29;20040;-77
2023/02/09 00:24:38;;;;;;;17.85;13.20;;;5.90;63.20;;;;;;4920298;29;20484;-78
2023/02/09 00:27:04;;;;;;;14.07;12.32;;;5.90;63.30;;;;;;4927424;29;20059;-78
2023/02/09 00:29:30;;;;;;;16.60;12.57;;;5.90;63.30;;;;;;4925129;29;20131;-78
2023/02/09 00:31:56;;;;;;;14.65;11.98;;;5.90;63.40;;;;;;4927014;29;20611;-78
2023/02/09 00:36:48;;;;;;;15.30;12.05;;;5.90;63.40;;;;;;4921752;29;20047;-77
2023/02/09 00:39:15;;;;;;;14.85;12.27;;;5.90;63.40;;;;;;4927196;29;20393;-78
2023/02/09 00:44:27;;;;;;;20.90;13.23;;;5.80;63.30;;;;;;4922532;29;20053;-76
2023/02/09 00:46:53;;;;;;;15.38;13.10;;;5.90;63.50;;;;;;4923280;29;20040;-77
2023/02/09 00:49:19;;;;;;;16.67;12.57;;;5.80;63.30;;;;;;4908508;29;20198;-76
2023/02/09 00:51:45;;;;;;;15.48;13.07;;;5.80;63.40;;;;;;4924087;29;20040;-76
2023/02/09 00:54:12;;;;;;;16.17;12.45;;;5.80;63.50;;;;;;4923456;29;20036;-77
2023/02/09 00:56:38;;;;;;;15.43;12.18;;;5.80;63.50;;;;;;4936677;29;20039;-77
2023/02/09 00:59:05;;;;;;;14.98;11.68;;;5.70;63.40;;;;;;4927001;29;20110;-77
2023/02/09 01:01:31;;;;;;;14.80;12.40;;;5.80;63.50;;;;;;4927962;29;20099;-77
2023/02/09 01:03:57;;;;;;;15.88;13.25;;;5.70;63.40;;;;;;4923793;29;20492;-77
2023/02/09 01:06:23;;;;;;;15.10;12.68;;;5.80;63.60;;;;;;4922273;29;20032;-78
2023/02/09 01:08:49;;;;;;;16.83;11.77;;;5.70;63.40;;;;;;4921592;29;20581;-77
2023/02/09 01:11:16;;;;;;;14.45;11.93;;;5.70;63.40;;;;;;4927052;29;20062;-77
2023/02/09 01:13:42;;;;;;;14.52;11.27;;;5.70;63.50;;;;;;4919454;29;20168;-77
2023/02/09 01:16:11;;;;;;;17.73;12.15;;;5.70;63.50;;;;;;4928192;29;20040;-77
2023/02/09 01:18:39;;;;;;;18.00;13.27;;;5.70;63.60;;;;;;4925711;29;20034;-77
2023/02/09 01:21:10;;;;;;;15.57;12.38;;;5.60;63.40;;;;;;4925273;29;20039;-76
2023/02/09 01:23:37;;;;;;;21.07;13.20;;;5.60;63.50;;;;;;4926845;29;20066;-76
2023/02/09 01:26:04;;;;;;;13.90;12.15;;;5.60;63.50;;;;;;4923817;29;20036;-76
2023/02/09 01:28:33;;;;;;;17.00;12.98;;;5.60;63.50;;;;;;4926734;29;20391;-76
2023/02/09 01:31:03;;;;;;;13.45;11.85;;;5.60;63.60;;;;;;4926517;29;20309;-76
2023/02/09 01:33:29;;;;;;;13.57;11.73;;;5.60;63.60;;;;;;4925106;29;20071;-76
2023/02/09 01:36:03;;;;;;;12.75;11.15;;;5.60;63.60;;;;;;4920099;29;20507;-75
2023/02/09 01:38:29;;;;;;;17.35;11.38;;;5.50;63.50;;;;;;4921643;29;20290;-76
2023/02/09 01:40:55;;;;;;;14.13;12.02;;;5.60;63.70;;;;;;4908112;29;20044;-76
2023/02/09 01:43:21;;;;;;;12.68;11.20;;;5.50;63.50;;;;;;4926483;29;20028;-76
2023/02/09 01:45:49;;;;;;;15.52;11.93;;;5.50;63.60;;;;;;4926742;29;20120;-76
2023/02/09 01:48:19;;;;;;;17.27;11.95;;;5.60;63.80;;;;;;4916609;29;20035;-76
2023/02/09 01:50:49;;;;;;;18.55;11.52;;;5.50;63.60;;;;;;4929370;28;20050;-76
2023/02/09 01:53:18;;;;;;;14.55;12.23;;;5.60;64.30;;;;;;4929979;29;20046;-76
2023/02/09 01:56:00;;;;;;;16.90;14.10;;;5.60;63.80;;;;;;4931607;28;20424;-76
2023/02/09 01:58:27;;;;;;;13.55;11.40;;;5.60;63.80;;;;;;4923342;29;20098;-77
2023/02/09 02:00:53;;;;;;;13.52;10.82;;;5.60;63.80;;;;;;4931824;28;20039;-76
2023/02/09 02:03:23;;;;;;;15.32;11.90;;;5.60;64.30;;;;;;4926886;29;20515;-76
2023/02/09 02:05:54;;;;;;;14.30;11.52;;;5.60;63.80;;;;;;4921025;29;20040;-77
2023/02/09 02:08:44;;;;;;;15.13;12.05;;;5.60;63.80;;;;;;4933811;29;20500;-76
2023/02/09 02:11:11;;;;;;;16.58;11.85;;;5.60;63.80;;;;;;4930752;28;20039;-76
2023/02/09 02:13:37;;;;;;;16.90;11.43;;;5.70;63.90;;;;;;4942086;29;20069;-77
2023/02/09 02:16:36;;;;;;;15.63;11.75;;;5.60;63.70;;;;;;4933223;28;20083;-76
2023/02/09 02:19:24;;;;;;;14.48;12.35;;;5.70;63.90;;;;;;4929161;28;20589;-76
2023/02/09 02:22:02;;;;;;;14.48;11.27;;;5.70;63.80;;;;;;4927172;29;20051;-76
2023/02/09 02:24:56;;;;;;;13.55;10.77;;;5.70;63.70;;;;;;4924621;29;20067;-77
2023/02/09 02:27:45;;;;;;;13.48;10.52;;;5.70;63.70;;;;;;4927194;29;20043;-77
2023/02/09 02:30:42;;;;;;;14.63;11.43;;;5.80;63.90;;;;;;4921305;29;20048;-76
2023/02/09 02:33:14;;;;;;;13.88;10.38;;;5.80;63.80;;;;;;4926272;29;20039;-76
2023/02/09 02:35:50;;;;;;;15.00;11.32;;;5.80;63.80;;;;;;4915628;29;20036;-78
2023/02/09 02:38:18;;;;;;;15.18;10.30;;;5.80;63.70;;;;;;4922080;29;20491;-77
2023/02/09 02:41:04;;;;;;;15.70;11.77;;;5.80;63.70;;;;;;4933178;29;20420;-77
2023/02/09 02:43:58;;;;;;;13.88;10.80;;;5.90;64.00;;;;;;4934211;29;20059;-77
2023/02/09 02:46:42;;;;;;;12.85;10.98;;;5.90;64.00;;;;;;4925826;29;20499;-77
2023/02/09 02:49:11;;;;;;;12.75;10.38;;;5.90;64.00;;;;;;4918971;29;20423;-76
2023/02/09 02:51:43;;;;;;;13.18;10.07;;;5.90;64.00;;;;;;4927641;29;20043;-76
2023/02/09 02:54:16;;;;;;;12.32;10.52;;;5.90;64.00;;;;;;4929070;29;20027;-76
2023/02/09 02:56:46;;;;;;;16.35;10.55;;;5.90;64.00;;;;;;4926266;29;20036;-76
2023/02/09 02:59:20;;;;;;;13.57;10.57;;;5.90;64.00;;;;;;4923559;29;20031;-77
2023/02/09 03:02:08;;;;;;;12.57;10.07;;;6.00;64.10;;;;;;4917830;29;20435;-76
2023/02/09 03:04:36;;;;;;;14.52;11.00;;;6.00;64.10;;;;;;4927402;29;20036;-76
2023/02/09 03:07:06;;;;;;;14.25;10.25;;;6.00;64.10;;;;;;4927839;29;20050;-77
2023/02/09 03:09:33;;;;;;;15.60;10.82;;;6.10;64.20;;;;;;4928040;29;20649;-77
2023/02/09 03:12:33;;;;;;;16.27;9.95;;;6.10;64.20;;;;;;4923147;29;20028;-77
2023/02/09 03:15:09;;;;;;;14.15;10.45;;;6.10;64.20;;;;;;4920048;29;20143;-77
2023/02/09 03:17:47;;;;;;;14.43;10.30;;;6.10;64.20;;;;;;4930202;29;20036;-77
2023/02/09 03:20:24;;;;;;;13.63;10.07;;;6.10;64.20;;;;;;4921785;29;20491;-76
2023/02/09 03:22:56;;;;;;;16.90;10.15;;;6.20;64.30;;;;;;4918047;29;20179;-77
2023/02/09 03:25:30;;;;;;;11.95;9.52;;;6.20;64.30;;;;;;4928463;29;20074;-77
2023/02/09 03:28:04;;;;;;;12.88;9.93;;;6.20;64.30;;;;;;4929911;29;20039;-77
2023/02/09 03:30:32;;;;;;;11.93;9.43;;;6.20;64.30;;;;;;4927695;29;20050;-77
2023/02/09 03:33:00;;;;;;;15.27;9.80;;;6.20;64.30;;;;;;4929500;29;20040;-76
2023/02/09 03:35:34;;;;;;;11.45;9.50;;;6.30;64.50;;;;;;4925364;29;20043;-77
2023/02/09 03:38:01;;;;;;;12.93;9.82;;;6.30;64.40;;;;;;4927221;29;20035;-77
2023/02/09 03:40:27;;;;;;;13.85;9.90;;;6.30;64.40;;;;;;4927379;29;20103;-77
2023/02/09 03:42:53;;;;;;;10.18;9.13;;;6.30;64.40;;;;;;4925004;29;20072;-77
2023/02/09 03:45:18;;;;;;;10.80;9.20;;;6.30;64.40;;;;;;4908857;29;20508;-77
2023/02/09 03:47:44;;;;;;;12.68;9.82;;;6.40;64.60;;;;;;4918222;29;20420;-77
2023/02/09 03:50:10;;;;;;;14.02;9.98;;;6.40;64.60;;;;;;4927895;29;20040;-76
2023/02/09 03:52:36;;;;;;;13.02;9.93;;;6.40;64.60;;;;;;4922500;29;20072;-77
2023/02/09 03:55:04;;;;;;;13.93;9.40;;;6.40;64.60;;;;;;4927908;29;20063;-76
2023/02/09 03:57:29;;;;;;;15.50;9.27;;;6.40;64.60;;;;;;4928103;29;20482;-76
2023/02/09 03:59:55;;;;;;;13.80;8.98;;;6.50;64.70;;;;;;4921632;29;20059;-76
2023/02/09 04:02:21;;;;;;;12.30;9.65;;;6.50;64.70;;;;;;4931292;29;20393;-75
2023/02/09 04:04:47;;;;;;;11.45;8.82;;;6.50;64.70;;;;;;4931941;29;20035;-76
2023/02/09 04:07:13;;;;;;;11.27;8.25;;;6.50;64.70;;;;;;4923872;29;20039;-75
2023/02/09 04:09:39;;;;;;;11.23;8.40;;;6.50;64.70;;;;;;4928550;29;20038;-76
2023/02/09 04:12:05;;;;;;;11.23;7.95;;;6.50;64.70;;;;;;4932546;29;20518;-76
2023/02/09 04:14:31;;;;;;;12.82;8.93;;;6.60;64.90;;;;;;4932829;29;20054;-77
2023/02/09 04:16:57;;;;;;;9.25;7.80;;;6.60;64.90;;;;;;4927989;29;20031;-76
2023/02/09 04:19:23;;;;;;;13.75;9.38;;;6.60;64.90;;;;;;4930714;29;20051;-76
2023/02/09 04:21:49;;;;;;;12.77;8.88;;;6.60;64.90;;;;;;4930274;29;20043;-76
2023/02/09 04:24:20;;;;;;;12.18;9.43;;;6.60;64.90;;;;;;4930822;29;20030;-76
2023/02/09 04:26:46;;;;;;;11.30;9.10;;;6.60;64.90;;;;;;4932519;29;20492;-76
2023/02/09 04:29:12;;;;;;;12.27;9.35;;;6.70;65.10;;;;;;4932600;29;20044;-76
2023/02/09 04:31:38;;;;;;;13.80;8.88;;;6.70;65.10;;;;;;4930730;29;20541;-76
2023/02/09 04:34:05;;;;;;;11.18;8.52;;;6.70;65.10;;;;;;4932502;29;20083;-76
2023/02/09 04:36:31;;;;;;;12.95;7.88;;;6.70;65.60;;;;;;4925452;29;20040;-76
2023/02/09 04:38:57;;;;;;;11.77;8.65;;;6.70;65.10;;;;;;4926035;29;20032;-76
2023/02/09 04:41:23;;;;;;;13.10;8.65;;;6.70;65.10;;;;;;4924471;29;20154;-75
2023/02/09 04:43:49;;;;;;;10.15;7.50;;;6.70;65.10;;;;;;4933692;29;20071;-76
2023/02/09 04:46:16;;;;;;;8.70;7.78;;;6.80;65.30;;;;;;4932214;29;20058;-80
2023/02/09 04:48:43;;;;;;;9.23;7.85;;;6.80;65.30;;;;;;4931287;29;20036;-88
2023/02/09 04:51:09;;;;;;;13.13;8.43;;;6.80;65.30;;;;;;4930883;29;20032;-78
2023/02/09 04:53:35;;;;;;;11.38;7.22;;;6.80;65.20;;;;;;4934680;29;20094;-78
2023/02/09 04:56:01;;;;;;;12.32;8.45;;;6.90;65.40;;;;;;4930245;29;20027;-78
2023/02/09 05:01:18;;;;;;;12.00;7.63;;;6.90;65.40;;;;;;4930018;29;20047;-79
2023/02/09 05:03:44;;;;;;;13.27;7.22;;;6.90;65.30;;;;;;4931705;29;20589;-78
2023/02/09 05:06:09;;;;;;;11.15;7.10;;;6.90;65.30;;;;;;4927260;29;20369;-79
2023/02/09 05:08:35;;;;;;;12.55;7.28;;;6.90;65.40;;;;;;4923216;29;20043;-79
2023/02/09 05:11:01;;;;;;;11.50;7.88;;;6.90;65.40;;;;;;4929694;29;20055;-78
2023/02/09 05:13:28;;;;;;;10.23;7.03;;;6.90;65.40;;;;;;4924474;29;20119;-79
2023/02/09 05:15:54;;;;;;;9.73;6.50;;;6.90;65.40;;;;;;4929666;29;20046;-80
2023/02/09 05:18:20;;;;;;;9.85;6.60;;;6.90;65.40;;;;;;4927567;29;20035;-78
2023/02/09 05:20:47;;;;;;;10.65;6.97;;;6.90;65.40;;;;;;4925359;29;20044;-76
2023/02/09 05:23:14;;;;;;;12.63;6.82;;;6.90;65.40;;;;;;4939874;29;20615;-81
2023/02/09 05:25:40;;;;;;;11.68;7.05;;;6.90;65.40;;;;;;4930946;29;20392;-82
2023/02/09 05:28:06;;;;;;;12.98;6.63;;;7.00;65.70;;;;;;4927847;29;20480;-81
2023/02/09 05:30:32;;;;;;;11.98;6.68;;;7.00;65.70;;;;;;4927259;29;20118;-79
2023/02/09 05:32:58;;;;;;;9.43;7.35;;;7.00;65.70;;;;;;4925081;29;20043;-78
2023/02/09 05:35:24;;;;;;;16.63;7.50;;;7.00;65.70;;;;;;4931044;29;20039;-78
2023/02/09 05:37:50;;;;;;;10.88;7.07;;;7.00;65.70;;;;;;4924398;29;20040;-77
2023/02/09 05:40:16;;;;;;;12.02;8.35;;;7.00;65.70;;;;;;4921808;29;20531;-78
2023/02/09 05:42:42;;;;;;;9.10;6.63;;;7.00;65.70;;;;;;4931128;29;20155;-78
2023/02/09 05:45:09;;;;;;;9.95;6.53;;;7.00;65.70;;;;;;4922560;29;20548;-77
2023/02/09 05:47:35;;;;;;;11.43;6.20;;;7.10;65.90;;;;;;4927955;29;20059;-77
2023/02/09 05:50:01;;;;;;;9.23;6.20;;;7.10;65.90;;;;;;4922436;29;20385;-77
2023/02/09 05:52:27;;;;;;;13.23;7.00;;;7.10;65.90;;;;;;4927209;29;20377;-79
2023/02/09 05:54:53;;;;;;;11.65;7.28;;;7.10;65.90;;;;;;4926323;29;20545;-78
2023/02/09 05:57:19;;;;;;;13.25;6.93;;;7.10;65.90;;;;;;4925437;29;20067;-85
2023/02/09 05:59:45;;;;;;;11.57;6.55;;;7.20;66.10;;;;;;4907381;29;20086;-81
2023/02/09 06:02:11;;;;;;;12.75;6.50;;;7.20;66.00;;;;;;4924184;29;20473;-79
2023/02/09 06:04:37;;;;;;;11.50;6.85;;;7.20;66.50;;;;;;4927270;29;20032;-80
2023/02/09 06:07:03;;;;;;;10.05;6.78;;;7.20;66.00;;;;;;4925369;29;20040;-83
2023/02/09 06:09:29;;;;;;;12.10;6.65;;;7.20;66.10;;;;;;4924946;29;20536;-84
2023/02/09 06:11:55;;;;;;;11.18;6.90;;;7.30;66.20;;;;;;4918389;29;20040;-82
2023/02/09 06:14:21;;;;;;;10.20;6.70;;;7.30;66.30;;;;;;4922051;29;20060;-79
2023/02/09 06:16:47;;;;;;;11.27;6.43;;;7.20;66.10;;;;;;4926580;29;20035;-79
2023/02/09 06:19:14;;;;;;;8.48;6.10;;;7.30;66.30;;;;;;4925160;29;20115;-79
2023/02/09 06:21:40;;;;;;;12.32;7.20;;;7.30;66.30;;;;;;4921317;29;20134;-80
2023/02/09 06:24:06;;;;;;;9.75;7.07;;;7.30;66.40;;;;;;4923572;29;20134;-80
2023/02/09 06:26:32;;;;;;;12.20;7.28;;;7.30;66.40;;;;;;4923600;29;20050;-80
2023/02/09 06:28:58;;;;;;;11.73;6.80;;;7.30;66.40;;;;;;4925217;29;20036;-87
2023/02/09 06:31:24;;;;;;;11.63;6.93;;;7.30;66.50;;;;;;4919937;29;20379;-83
2023/02/09 06:33:50;;;;;;;12.48;7.18;;;7.30;66.50;;;;;;4927288;29;20027;-84
2023/02/09 06:36:16;;;;;;;11.13;6.82;;;7.40;66.70;;;;;;4922728;29;20028;-85
2023/02/09 06:38:42;;;;;;;12.73;7.07;;;7.40;66.70;;;;;;4922231;29;20040;-83
2023/02/09 06:41:07;;;;;;;15.32;7.20;;;7.40;66.70;;;;;;4924447;29;20077;-82
2023/02/09 06:43:34;;;;;;;15.07;7.30;;;7.40;66.70;;;;;;4925267;29;20066;-78
2023/02/09 06:46:10;;;;;;;14.55;7.20;;;7.40;66.70;;;;;;4916892;29;20086;-78
2023/02/09 06:48:38;;;;;;;11.35;6.82;;;7.40;66.80;;;;;;4916139;29;20488;-79
2023/02/09 06:51:09;;;;;;;11.02;7.50;;;7.40;66.70;;;;;;4927519;29;20039;-82
2023/02/09 06:53:36;;;;;;;12.88;7.00;;;7.50;66.90;;;;;;4936644;29;20369;-81
2023/02/09 06:56:02;;;;;;;13.38;7.10;;;7.50;66.90;;;;;;4925844;29;20039;-80
2023/02/09 06:58:28;;;;;;;10.52;6.55;;;7.50;66.90;;;;;;4926307;29;20050;-78
2023/02/09 07:00:54;;;;;;;10.43;7.18;;;7.50;66.90;;;;;;4923544;29;20044;-77
2023/02/09 07:03:20;;;;;;;9.77;6.63;;;7.50;67.00;;;;;;4925633;29;20260;-78
2023/02/09 07:05:45;;;;;;;12.40;7.82;;;7.50;67.00;;;;;;4924534;29;20096;-78
2023/02/09 07:08:11;;;;;;;13.93;8.75;;;7.50;67.00;;;;;;4923792;29;20469;-78
2023/02/09 07:10:39;;;;;;;13.60;7.43;;;7.60;67.20;;;;;;4922607;29;20383;-78
2023/02/09 07:13:05;;;;;;;10.73;6.57;;;7.50;67.10;;;;;;4921591;29;20038;-77
2023/02/09 07:15:31;;;;;;;17.45;6.93;;;7.50;67.10;;;;;;4925234;29;20380;-80
2023/02/09 07:17:57;;;;;;;10.50;7.00;;;7.60;67.30;;;;;;4922925;29;20054;-89
2023/02/09 07:20:23;;;;;;;13.02;7.22;;;7.60;67.30;;;;;;4921425;29;20059;-78
2023/02/09 07:22:49;;;;;;;12.88;7.28;;;7.60;67.90;;;;;;4922873;29;20335;-78
2023/02/09 07:25:15;;;;;;;12.57;7.38;;;7.60;67.40;;;;;;4922088;29;20040;-78
2023/02/09 07:27:44;;;;;;;12.30;7.50;;;7.60;67.40;;;;;;4924687;29;20131;-81
2023/02/09 07:30:11;;;;;;;13.38;8.30;;;7.60;67.50;;;;;;4925017;29;20098;-81
2023/02/09 07:32:38;;;;;;;9.80;7.40;;;7.60;67.40;;;;;;4920535;29;20603;-80
2023/02/09 07:35:05;;;;;;;13.43;7.32;;;7.60;67.50;;;;;;4923173;29;20097;-80
2023/02/09 07:37:31;;;;;;;13.82;7.28;;;7.60;67.40;;;;;;4921971;29;20063;-78
2023/02/09 07:39:56;;;;;;;9.63;6.82;;;7.60;67.40;;;;;;4921256;29;20502;-78
2023/02/09 07:42:22;;;;;;;9.32;6.72;;;7.60;67.50;;;;;;4924261;29;20211;-78
2023/02/09 07:44:55;;;;;;;12.45;6.85;;;7.60;67.50;;;;;;4919985;29;20383;-78
2023/02/09 07:47:21;;;;;;;9.23;7.20;;;7.60;67.50;;;;;;4909219;29;20579;-79
2023/02/09 07:49:47;;;;;;;11.60;7.43;;;7.60;67.50;;;;;;4923019;29;20083;-76
2023/02/09 07:52:13;;;;;;;11.52;7.13;;;7.70;67.70;;;;;;4924700;29;20115;-78
2023/02/09 07:54:39;;;;;;;12.88;6.75;;;7.70;67.80;;;;;;4907964;29;20403;-77
2023/02/09 07:57:05;;;;;;;13.73;8.50;;;7.70;68.00;;;;;;4919836;29;20563;-77
2023/02/09 07:59:31;;;;;;;10.68;7.85;;;7.80;68.30;;;;;;4922986;29;20396;-77
2023/02/09 08:01:57;;;;;;;11.30;7.20;;;7.90;68.60;;;;;;4924934;29;20620;-77
2023/02/09 08:04:23;;;;;;;10.95;7.32;;;8.00;68.80;;;;;;4923805;29;20488;-76
2023/02/09 08:06:49;;;;;;;14.02;8.38;;;8.10;68.90;;;;;;4917235;29;20064;-80
2023/02/09 08:09:15;;;;;;;12.55;7.78;;;8.20;69.10;;;;;;4924104;29;20135;-81
2023/02/09 08:11:41;;;;;;;16.27;8.43;;;8.30;69.20;;;;;;4924242;29;20039;-78
2023/02/09 08:14:14;;;;;;;14.35;10.00;;;8.40;69.30;;;;;;4923245;29;20042;-79
2023/02/09 08:16:40;;;;;;;13.13;7.72;;;8.50;69.50;;;;;;4925299;29;20130;-80
2023/02/09 08:19:15;;;;;;;12.85;8.77;;;8.70;69.80;;;;;;4924164;29;20032;-81
2023/02/09 08:21:45;;;;;;;12.98;7.70;;;8.80;69.90;;;;;;4925084;29;20566;-78
2023/02/09 08:24:12;;;;;;;15.13;8.00;;;8.90;70.00;;;;;;4912576;29;20167;-78
2023/02/09 08:26:40;;;;;;;13.82;8.30;;;9.10;70.30;;;;;;4924448;29;20035;-79
2023/02/09 08:29:07;;;;;;;14.40;7.63;;;9.10;70.20;;;;;;4924155;29;20409;-75
2023/02/09 08:31:33;;;;;;;11.50;7.20;;;9.20;70.40;;;;;;4921666;29;20449;-74
2023/02/09 08:33:59;;;;;;;10.35;6.47;;;9.40;70.50;;;;;;4923022;29;20159;-81
2023/02/09 08:36:25;;;;;;;11.55;7.22;;;9.50;70.60;;;;;;4916014;29;20516;-78
2023/02/09 08:38:50;;;;;;;11.27;6.03;;;9.60;70.60;;;;;;4922501;29;20459;-82
2023/02/09 08:41:17;;;;;;;12.45;6.65;;;9.70;70.70;;;;;;4923043;29;20051;-79
2023/02/09 08:43:50;;;;;;;12.98;6.20;;;9.80;70.70;;;;;;4922334;28;20500;-76
2023/02/09 08:46:17;;;;;;;10.70;6.10;;;9.90;70.80;;;;;;4924296;29;20098;-78
2023/02/09 08:48:45;;;;;;;9.55;6.97;;;10.00;70.80;;;;;;4922690;29;20603;-78
2023/02/09 08:51:13;;;;;;;15.32;6.32;;;10.10;70.80;;;;;;4933082;28;20527;-78
2023/02/09 08:53:39;;;;;;;18.13;7.85;;;10.20;70.80;;;;;;4919920;29;20036;-78
2023/02/09 08:56:05;;;;;;;10.75;6.70;;;10.30;70.80;;;;;;4925521;29;20036;-79
2023/02/09 08:58:32;;;;;;;10.73;7.25;;;10.40;70.80;;;;;;4929705;29;20035;-78
2023/02/09 09:01:01;;;;;;;14.73;6.60;;;10.50;70.80;;;;;;4922308;29;20485;-78
2023/02/09 09:03:30;;;;;;;13.77;6.43;;;10.60;70.90;;;;;;4929127;29;21000;-78
2023/02/09 09:06:01;;;;;;;13.07;6.78;;;10.70;70.90;;;;;;4936500;29;20065;-78
2023/02/09 09:08:27;;;;;;;10.27;7.00;;;10.70;70.90;;;;;;4921643;29;20036;-78
2023/02/09 09:10:53;;;;;;;12.43;6.28;;;10.80;70.90;;;;;;4924656;29;20028;-75
2023/02/09 09:13:19;;;;;;;8.52;5.80;;;10.90;71.00;;;;;;4931572;29;20083;-75
2023/02/09 09:15:46;;;;;;;11.85;6.90;;;10.90;70.80;;;;;;4940313;29;20047;-78
2023/02/09 09:18:12;;;;;;;9.68;6.25;;;11.00;70.90;;;;;;4932482;28;20035;-78
2023/02/09 09:20:38;;;;;;;13.75;6.88;;;11.00;70.80;;;;;;4923415;29;20071;-79
2023/02/09 09:23:05;;;;;;;10.85;6.40;;;11.10;70.90;;;;;;4926053;29;20039;-77
2023/02/09 09:25:31;;;;;;;11.80;6.03;;;11.20;70.80;;;;;;4923446;29;20035;-76
2023/02/09 09:27:57;;;;;;;8.68;4.82;;;11.30;71.00;;;;;;4925852;29;20040;-78
2023/02/09 09:30:23;;;;;;;10.30;5.25;;;11.50;71.30;;;;;;4924303;29;20052;-79
2023/02/09 09:32:49;;;;;;;8.73;5.00;;;11.70;71.40;;;;;;4926196;29;20039;-78
2023/02/09 09:35:15;;;;;;;7.85;4.30;;;12.00;71.40;;;;;;4924821;29;20485;-78
2023/02/09 09:37:41;;;;;;;8.90;4.55;;;12.30;71.30;;;;;;4922404;29;20046;-78
2023/02/09 09:40:09;;;;;;;15.50;6.22;;;12.60;71.20;;;;;;4923355;29;20181;-81
2023/02/09 09:42:45;;;;;;;11.77;4.53;;;12.90;71.00;;;;;;4921051;29;20457;-79
2023/02/09 09:45:17;;;;;;;6.50;4.43;;;13.10;70.70;;;;;;4925588;29;20067;-79
2023/02/09 09:47:43;;;;;;;8.60;4.38;;;13.40;70.50;;;;;;4926363;29;20074;-79
2023/02/09 09:50:24;;;;;;;13.05;5.53;;;13.50;70.20;;;;;;4940918;29;20365;-79
2023/02/09 09:52:54;;;;;;;9.13;4.78;;;13.70;70.10;;;;;;4939729;29;20451;-79
2023/02/09 09:55:23;;;;;;;13.00;5.30;;;13.80;69.90;;;;;;4935262;29;20035;-83
2023/02/09 09:57:51;;;;;;;10.85;4.95;;;13.90;69.80;;;;;;4938606;29;20555;-85
2023/02/09 10:00:39;;;;;;;10.23;5.35;;;13.90;69.50;;;;;;4916927;29;20161;-82
2023/02/09 10:03:14;;;;;;;10.15;6.20;;;13.90;69.20;;;;;;4926347;29;20044;-85
2023/02/09 10:05:41;;;;;;;8.88;5.78;;;13.80;68.70;;;;;;4939911;29;20324;-81
2023/02/09 10:08:13;;;;;;;11.15;6.65;;;13.70;68.80;;;;;;4911256;29;20358;-77
2023/02/09 10:11:07;;;;;;;12.40;6.00;;;13.50;68.60;;;;;;4922902;29;20079;-79
2023/02/09 10:13:38;;;;;;;;;;;13.30;68.40;;;;;;4919936;29;20028;-79
2023/02/09 10:16:26;;;;;;;10.95;6.40;;;13.10;68.60;;;;;;4927519;29;19914;-85
2023/02/09 10:18:57;;;;;;;13.57;6.38;;;13.00;68.90;;;;;;4929700;29;20485;-76
2023/02/09 10:21:25;;;;;;;14.30;5.85;;;12.90;69.10;;;;;;4926490;29;20047;-80
2023/02/09 10:24:00;;;;;;;11.52;6.63;;;12.90;69.20;;;;;;4938905;29;20118;-80
2023/02/09 10:26:36;;;;;;;10.63;6.43;;;12.80;68.90;;;;;;4922989;29;20040;-79
2023/02/09 10:29:11;;;;;;;11.00;6.07;;;12.80;68.80;;;;;;4931209;29;20062;-77
2023/02/09 10:31:46;;;;;;;9.65;6.00;;;12.80;68.70;;;;;;4930859;29;20343;-77
2023/02/09 10:34:17;;;;;;;10.15;6.80;;;12.80;68.70;;;;;;4938815;28;20039;-78
2023/02/09 10:36:46;;;;;;;9.60;5.78;;;12.80;68.50;;;;;;4908194;29;20589;-77
2023/02/09 10:39:15;;;;;;;14.38;6.18;;;12.90;68.50;;;;;;4933601;28;20043;-77
2023/02/09 10:41:43;;;;;;;6.32;4.47;;;12.90;68.40;;;;;;4924377;29;20059;-77
2023/02/09 10:44:25;;;;;;;7.35;5.05;;;12.80;68.00;;;;;;4937539;29;20046;-78
2023/02/09 10:47:24;;;;;;;8.67;4.90;;;12.80;67.70;;;;;;4921609;28;20036;-77
2023/02/09 10:49:54;;;;;;;9.95;4.78;;;12.80;67.60;;;;;;4915747;29;20028;-77
2023/02/09 10:52:23;;;;;;;8.93;4.88;;;12.70;67.60;;;;;;4936388;29;20038;-78
2023/02/09 10:54:51;;;;;;;8.00;5.20;;;12.60;67.50;;;;;;4927986;28;20035;-77
2023/02/09 10:57:27;;;;;;;7.07;4.40;;;12.50;67.30;;;;;;4930528;28;20094;-76
2023/02/09 11:00:18;;;;;;;9.65;5.30;;;12.40;67.20;;;;;;4925472;29;20039;-76
2023/02/09 11:02:53;;;;;;;9.00;4.40;;;12.30;67.00;;;;;;4925818;29;20052;-81
2023/02/09 11:05:20;;;;;;;8.30;4.35;;;12.30;67.10;;;;;;4927041;29;20040;-83
2023/02/09 11:07:57;;;;;;;9.18;4.68;;;12.30;67.00;;;;;;4906560;29;20400;-76
2023/02/09 11:10:25;;;;;;;5.07;3.50;;;12.30;66.80;;;;;;4908209;29;20028;-77
2023/02/09 11:12:51;;;;;;;7.63;5.45;;;12.20;66.60;;;;;;4930154;29;20372;-78
2023/02/09 11:15:24;;;;;;;4.80;3.65;;;12.30;66.70;;;;;;4932705;28;20820;-79
2023/02/09 11:18:00;;;;;;;6.80;4.78;;;12.30;66.60;;;;;;4919282;29;20478;-77
2023/02/09 11:20:34;;;;;;;6.20;4.53;;;12.30;66.50;;;;;;4920127;29;20027;-79
2023/02/09 11:23:31;;;;;;;5.32;3.85;;;12.30;66.30;;;;;;4925424;29;20066;-78
2023/02/09 11:26:02;;;;;;;5.50;4.38;;;12.40;66.30;;;;;;4924432;29;20424;-79
2023/02/09 11:28:50;;;;;;;6.93;4.00;;;12.30;66.00;;;;;;4925191;29;20039;-79
2023/02/09 11:31:18;;;;;;;4.22;3.58;;;12.40;66.00;;;;;;4919446;29;20365;-80
2023/02/09 11:34:02;;;;;;;6.35;4.13;;;12.50;66.10;;;;;;4923325;29;20039;-78
2023/02/09 11:37:00;;;;;;;6.53;4.22;;;12.50;65.90;;;;;;4904415;29;20028;-79
2023/02/09 11:40:04;;;;;;;7.38;3.45;;;12.50;65.50;;;;;;4925994;29;20079;-80
2023/02/09 11:42:44;;;;;;;;;;;12.50;65.50;;;;;;4923977;29;20333;-79
2023/02/09 11:45:10;;;;;;;4.93;3.35;;;12.40;65.60;;;;;;4931225;29;19910;-87
2023/02/09 11:47:46;;;;;;;13.18;4.63;;;12.40;65.70;;;;;;4923423;28;20287;-82
2023/02/09 11:50:38;;;;;;;12.15;4.20;;;12.40;65.80;;;;;;4927871;29;20118;-82
2023/02/09 11:53:15;;;;;;;10.30;4.35;;;12.40;66.50;;;;;;4925895;29;20094;-82
2023/02/09 11:55:55;;;;;;;6.95;3.53;;;12.40;65.90;;;;;;4934067;29;20031;-80
2023/02/09 11:58:39;;;;;;;14.75;4.70;;;12.40;65.90;;;;;;4908950;29;20123;-78
2023/02/09 12:01:43;;;;;;;5.97;3.55;;;12.40;65.90;;;;;;4921909;29;20052;-83
2023/02/09 12:04:16;;;;;;;5.03;3.80;;;12.30;65.70;;;;;;4901001;29;20516;-78
2023/02/09 12:06:47;;;;;;;8.52;3.80;;;12.40;65.80;;;;;;4930113;28;20486;-77
2023/02/09 12:09:33;;;;;;;7.63;3.63;;;12.40;65.80;;;;;;4916754;29;20028;-77
2023/02/09 12:12:24;;;;;;;5.80;3.42;;;12.40;65.50;;;;;;4940934;28;20354;-78
2023/02/09 12:15:21;;;;;;;5.72;3.15;;;12.40;65.30;;;;;;4911897;29;20036;-77
2023/02/09 12:17:53;;;;;;;7.15;3.55;;;12.40;65.20;;;;;;4918694;29;20447;-78
2023/02/09 12:20:27;;;;;;;5.45;2.97;;;12.40;65.10;;;;;;4919956;29;20026;-78
2023/02/09 12:22:54;;;;;;;5.35;2.92;;;12.50;65.20;;;;;;4927510;29;20070;-84
2023/02/09 12:25:31;;;;;;;4.22;2.50;;;12.40;64.90;;;;;;4930739;29;20036;-78
2023/02/09 12:28:23;;;;;;;5.53;2.63;;;12.40;64.70;;;;;;4928804;28;20066;-77
2023/02/09 12:30:49;;;;;;;3.55;2.53;;;12.50;64.60;;;;;;4907194;29;20055;-78
2023/02/09 12:33:29;;;;;;;6.47;2.85;;;12.40;64.50;;;;;;4933677;28;20114;-76
2023/02/09 12:36:14;;;;;;;2.55;2.00;;;12.40;64.30;;;;;;4933976;29;20436;-76
2023/02/09 12:38:57;;;;;;;6.07;2.75;;;12.40;64.20;;;;;;4938002;29;20035;-76
2023/02/09 12:41:27;;;;;;;8.00;2.78;;;12.30;64.10;;;;;;4921560;29;20078;-78
2023/02/09 12:44:17;;;;;;;2.17;1.98;;;12.30;64.00;;;;;;4937627;29;20060;-79
2023/02/09 12:46:43;;;;;;;4.53;2.20;;;12.20;63.50;;;;;;4935794;29;20451;-76
2023/02/09 12:49:12;;;;;;;4.65;2.30;;;12.20;63.80;;;;;;4926647;29;20484;-77
2023/02/09 12:51:47;;;;;;;2.95;2.35;;;12.20;63.70;;;;;;4928693;29;20063;-76
2023/02/09 12:54:43;;;;;;;7.28;2.40;;;12.20;63.60;;;;;;4928429;29;20047;-76
2023/02/09 12:57:15;;;;;;;6.25;2.55;;;12.30;63.60;;;;;;4928506;29;20548;-77
2023/02/09 13:00:03;;;;;;;4.28;2.58;;;12.30;63.50;;;;;;4927338;29;20118;-77
2023/02/09 13:02:37;;;;;;;5.38;3.53;;;12.40;63.40;;;;;;4929784;29;20047;-77
2023/02/09 13:05:15;;;;;;;4.20;1.52;;;12.50;63.40;;;;;;4926180;29;20036;-79
2023/02/09 13:07:53;;;;;;;4.40;1.77;;;12.70;63.40;;;;;;4914680;29;20118;-77
2023/02/09 13:10:23;;;;;;;5.53;2.10;;;12.80;63.20;;;;;;4923167;29;20534;-81
2023/02/09 13:13:11;;;;;;;4.45;1.85;;;12.90;63.10;;;;;;4917519;29;21399;-80